createdAt,value
2022-08-27T00:01:38.408Z,100952.00
2022-08-27T00:04:05.472Z,100950.94
2022-08-27T00:06:32.408Z,100943.56
2022-08-27T00:08:59.936Z,100942.94
2022-08-27T00:11:26.875Z,100944.72
2022-08-27T00:13:54.203Z,100940.84
2022-08-27T00:16:21.223Z,100937.25
2022-08-27T00:18:49.057Z,100928.28
2022-08-27T00:21:17.991Z,100925.78
2022-08-27T00:23:45.371Z,100909.34
2022-08-27T00:26:17.593Z,100920.91
2022-08-27T00:28:44.809Z,100921.94
2022-08-27T00:31:12.353Z,100917.53
2022-08-27T00:33:40.679Z,100927.38
2022-08-27T00:36:08.346Z,100923.97
2022-08-27T00:38:36.475Z,100933.66
2022-08-27T00:41:03.782Z,100921.13
2022-08-27T00:43:45.341Z,100935.13
2022-08-27T00:46:24.047Z,100939.28
2022-08-27T00:48:55.353Z,100944.38
2022-08-27T00:51:22.863Z,100943.19
2022-08-27T00:53:51.939Z,100931.38
2022-08-27T00:56:23.604Z,100931.31
2022-08-27T00:58:53.492Z,100933.84
2022-08-27T01:01:26.447Z,100931.16
2022-08-27T01:03:58.404Z,100932.09
2022-08-27T01:06:31.309Z,100927.81
2022-08-27T01:09:15.020Z,100922.69
2022-08-27T01:11:44.179Z,100922.69
2022-08-27T01:14:11.191Z,100921.75
2022-08-27T01:16:43.790Z,100933.19
2022-08-27T01:19:29.855Z,100936.50
2022-08-27T01:22:09.583Z,100941.63
2022-08-27T01:24:49.957Z,100931.81
2022-08-27T01:27:22.673Z,100934.16
2022-08-27T01:29:49.575Z,100944.59
2022-08-27T01:32:23.472Z,100952.34
2022-08-27T01:34:50.845Z,100952.22
2022-08-27T01:37:23.587Z,100953.03
2022-08-27T01:39:52.699Z,100945.88
2022-08-27T01:42:25.696Z,100949.44
2022-08-27T01:45:21.503Z,100947.84
2022-08-27T01:47:48.458Z,100951.41
2022-08-27T01:50:22.153Z,100950.50
2022-08-27T01:52:49.412Z,100959.19
2022-08-27T01:55:20.922Z,100964.31
2022-08-27T01:57:49.175Z,100958.00
2022-08-27T02:00:27.135Z,100968.50
2022-08-27T02:02:54.543Z,100966.66
2022-08-27T02:05:21.752Z,100967.47
2022-08-27T02:07:49.447Z,100965.69
2022-08-27T02:10:23.109Z,100969.31
2022-08-27T02:12:50.013Z,100970.19
2022-08-27T02:15:17.463Z,100971.91
2022-08-27T02:17:44.384Z,100965.72
2022-08-27T02:20:12.408Z,100966.59
2022-08-27T02:22:40.315Z,100975.34
2022-08-27T02:25:10.480Z,100966.53
2022-08-27T02:27:37.462Z,100968.25
2022-08-27T02:30:05.627Z,100965.59
2022-08-27T02:32:32.937Z,100961.16
2022-08-27T02:35:00.695Z,100969.13
2022-08-27T02:37:28.151Z,100961.22
2022-08-27T02:39:55.924Z,100966.53
2022-08-27T02:42:23.013Z,100963.94
2022-08-27T02:44:49.938Z,100970.19
2022-08-27T02:47:17.109Z,100962.38
2022-08-27T02:49:44.440Z,100969.34
2022-08-27T02:52:12.601Z,100964.97
2022-08-27T02:54:40.351Z,100965.13
2022-08-27T02:57:07.572Z,100969.47
2022-08-27T02:59:34.527Z,100967.69
2022-08-27T03:02:01.614Z,100962.38
2022-08-27T03:04:29.357Z,100967.69
2022-08-27T03:06:56.679Z,100969.47
2022-08-27T03:09:23.605Z,100972.13
2022-08-27T03:11:50.511Z,100963.31
2022-08-27T03:14:17.460Z,100964.19
2022-08-27T03:16:44.357Z,100960.56
2022-08-27T03:19:11.486Z,100962.38
2022-08-27T03:21:38.602Z,100962.31
2022-08-27T03:24:09.340Z,100958.72
2022-08-27T03:26:39.752Z,100957.91
2022-08-27T03:29:07.913Z,100954.19
2022-08-27T03:31:35.037Z,100947.16
2022-08-27T03:34:07.444Z,100950.66
2022-08-27T03:36:34.335Z,100943.66
2022-08-27T03:39:01.242Z,100939.22
2022-08-27T03:41:45.526Z,100943.66
2022-08-27T03:44:18.485Z,100944.53
2022-08-27T03:46:50.234Z,100941.09
2022-08-27T03:49:20.653Z,100946.63
2022-08-27T03:51:52.964Z,100949.44
2022-08-27T03:54:20.543Z,100942.31
2022-08-27T03:56:47.452Z,100954.72
2022-08-27T03:59:15.721Z,100948.63
2022-08-27T04:01:44.357Z,100951.16
2022-08-27T04:04:13.059Z,100951.16
2022-08-27T04:06:40.661Z,100948.53
2022-08-27T04:09:07.585Z,100941.41
2022-08-27T04:11:35.360Z,100941.41
2022-08-27T04:14:14.571Z,100944.91
2022-08-27T04:16:52.644Z,100940.47
2022-08-27T04:19:21.248Z,100938.66
2022-08-27T04:21:50.948Z,100929.94
2022-08-27T04:24:18.070Z,100935.03
2022-08-27T04:26:47.512Z,100935.91
2022-08-27T04:29:14.478Z,100929.03
2022-08-27T04:31:41.517Z,100935.97
2022-08-27T04:34:08.503Z,100935.09
2022-08-27T04:36:35.433Z,100935.03
2022-08-27T04:39:02.584Z,100939.47
2022-08-27T04:41:33.208Z,100933.34
2022-08-27T04:44:08.699Z,100935.81
2022-08-27T04:46:40.045Z,100937.56
2022-08-27T04:49:13.617Z,100940.13
2022-08-27T04:51:43.397Z,100936.53
2022-08-27T04:54:10.885Z,100952.41
2022-08-27T04:56:39.130Z,100941.69
2022-08-27T04:59:09.169Z,100948.75
2022-08-27T05:01:38.440Z,100945.25
2022-08-27T05:04:06.240Z,100943.38
2022-08-27T05:06:35.057Z,100949.56
2022-08-27T05:09:01.990Z,100948.63
2022-08-27T05:11:32.326Z,100939.72
2022-08-27T05:13:59.461Z,100945.81
2022-08-27T05:16:26.375Z,100942.25
2022-08-27T05:18:53.726Z,100951.06
2022-08-27T05:21:31.996Z,100945.09
2022-08-27T05:24:02.200Z,100953.72
2022-08-27T05:26:30.331Z,100955.44
2022-08-27T05:29:00.113Z,100944.97
2022-08-27T05:31:28.385Z,100949.13
2022-08-27T05:33:56.469Z,100952.69
2022-08-27T05:36:31.268Z,100956.09
2022-08-27T05:39:01.356Z,100948.22
2022-08-27T05:41:34.166Z,100953.44
2022-08-27T05:44:24.067Z,100957.03
2022-08-27T05:46:52.856Z,100938.00
2022-08-27T05:49:19.772Z,100949.22
2022-08-27T05:51:46.700Z,100943.81
2022-08-27T05:54:19.344Z,100938.59
2022-08-27T05:56:47.503Z,100944.63
2022-08-27T05:59:34.663Z,100945.28
2022-08-27T06:02:02.578Z,100940.78
2022-08-27T06:04:30.053Z,100947.75
2022-08-27T06:06:57.106Z,100947.78
2022-08-27T06:09:26.915Z,100941.63
2022-08-27T06:11:58.619Z,100948.69
2022-08-27T06:14:26.436Z,100955.56
2022-08-27T06:16:53.442Z,100960.78
2022-08-27T06:19:20.455Z,100947.53
2022-08-27T06:22:00.287Z,100959.53
2022-08-27T06:24:29.138Z,100958.63
2022-08-27T06:26:57.401Z,100950.47
2022-08-27T06:29:25.113Z,100957.34
2022-08-27T06:31:52.967Z,100957.19
2022-08-27T06:34:19.904Z,100961.47
2022-08-27T06:36:46.821Z,100954.22
2022-08-27T06:39:15.460Z,100953.22
2022-08-27T06:41:44.675Z,100953.06
2022-08-27T06:44:13.684Z,100951.34
2022-08-27T06:46:41.324Z,100963.53
2022-08-27T06:49:08.787Z,100964.19
2022-08-27T06:51:38.468Z,100974.69
2022-08-27T06:54:09.616Z,100960.38
2022-08-27T06:56:36.720Z,100957.78
2022-08-27T06:59:09.905Z,100956.22
2022-08-27T07:01:42.539Z,100958.72
2022-08-27T07:04:16.824Z,100959.53
2022-08-27T07:06:44.155Z,100964.53
2022-08-27T07:09:11.133Z,100983.00
2022-08-27T07:11:38.975Z,100980.28
2022-08-27T07:14:07.030Z,100985.47
2022-08-27T07:16:34.131Z,100982.78
2022-08-27T07:19:04.074Z,100984.38
2022-08-27T07:21:33.564Z,100982.59
2022-08-27T07:24:04.950Z,100980.78
2022-08-27T07:26:36.441Z,100964.03
2022-08-27T07:29:07.086Z,100973.66
2022-08-27T07:31:35.738Z,100982.53
2022-08-27T07:34:04.371Z,100988.84
2022-08-27T07:36:31.729Z,101000.41
2022-08-27T07:39:01.590Z,101000.34
2022-08-27T07:41:53.541Z,101003.06
2022-08-27T07:44:27.946Z,100990.72
2022-08-27T07:46:56.548Z,100977.78
2022-08-27T07:49:28.707Z,100999.69
2022-08-27T07:51:56.146Z,100997.03
2022-08-27T07:54:25.471Z,100992.56
2022-08-27T07:56:54.687Z,100992.72
2022-08-27T07:59:26.048Z,100997.94
2022-08-27T08:01:55.267Z,100991.72
2022-08-27T08:04:23.582Z,101006.72
2022-08-27T08:06:51.747Z,101009.34
2022-08-27T08:09:22.231Z,101009.19
2022-08-27T08:11:50.485Z,101011.78
2022-08-27T08:14:19.354Z,101016.00
2022-08-27T08:16:46.674Z,101013.28
2022-08-27T08:19:13.850Z,101021.06
2022-08-27T08:21:40.842Z,101023.63
2022-08-27T08:24:07.823Z,101023.50
2022-08-27T08:26:34.763Z,101023.41
2022-08-27T08:29:04.994Z,101019.75
2022-08-27T08:31:31.930Z,101023.22
2022-08-27T08:33:58.884Z,101030.19
2022-08-27T08:36:25.813Z,101025.72
2022-08-27T08:38:54.261Z,101024.88
2022-08-27T08:41:40.831Z,101028.25
2022-08-27T08:44:20.484Z,101024.59
2022-08-27T08:46:55.457Z,101020.03
2022-08-27T08:49:42.040Z,101009.22
2022-08-27T08:52:31.158Z,101009.94
2022-08-27T08:55:28.483Z,101010.88
2022-08-27T08:58:26.100Z,101017.78
2022-08-27T09:01:00.769Z,101014.00
2022-08-27T09:03:29.959Z,101020.06
2022-08-27T09:06:10.404Z,101013.78
2022-08-27T09:08:42.431Z,101020.72
2022-08-27T09:11:43.883Z,101019.75
2022-08-27T09:14:46.297Z,101014.44
2022-08-27T09:17:13.803Z,101017.88
2022-08-27T09:19:41.570Z,101021.34
2022-08-27T09:22:20.705Z,101019.63
2022-08-27T09:25:05.558Z,101014.06
2022-08-27T09:27:35.535Z,101014.94
2022-08-27T09:30:10.539Z,101014.00
2022-08-27T09:32:39.097Z,101005.94
2022-08-27T09:35:11.387Z,101012.91
2022-08-27T09:37:48.131Z,101013.78
2022-08-27T09:40:30.571Z,101007.50
2022-08-27T09:43:19.496Z,101005.69
2022-08-27T09:45:59.679Z,101005.69
2022-08-27T09:48:37.570Z,101008.22
2022-08-27T09:51:15.030Z,100998.38
2022-08-27T09:54:36.987Z,101008.94
2022-08-27T09:57:05.676Z,100992.78
2022-08-27T09:59:37.855Z,100992.66
2022-08-27T10:02:22.124Z,100992.41
2022-08-27T10:04:55.761Z,100987.69
2022-08-27T10:07:40.123Z,100991.94
2022-08-27T10:10:40.678Z,100992.78
2022-08-27T10:13:35.947Z,100988.50
2022-08-27T10:16:47.299Z,100985.75
2022-08-27T10:20:11.718Z,100998.72
2022-08-27T10:23:20.167Z,100989.78
2022-08-27T10:26:15.405Z,100989.78
2022-08-27T10:28:57.030Z,100992.31
2022-08-27T10:31:32.749Z,100999.34
2022-08-27T10:34:46.854Z,100997.63
2022-08-27T10:37:52.166Z,100993.22
2022-08-27T10:41:02.382Z,101001.22
2022-08-27T10:44:02.923Z,100993.97
2022-08-27T10:46:53.107Z,100994.72
2022-08-27T10:50:04.047Z,100998.41
2022-08-27T10:52:51.596Z,101009.00
2022-08-27T10:55:30.607Z,101006.38
2022-08-27T10:58:10.272Z,101010.47
2022-08-27T11:00:50.439Z,101013.97
2022-08-27T11:03:32.146Z,101017.28
2022-08-27T11:06:08.407Z,101011.66
2022-08-27T11:08:49.898Z,101023.53
2022-08-27T11:14:50.815Z,101017.84
2022-08-27T11:17:32.246Z,101019.00
2022-08-27T11:20:31.444Z,101006.56
2022-08-27T11:23:08.048Z,101008.94
2022-08-27T11:26:02.103Z,101007.03
2022-08-27T11:28:43.452Z,101006.03
2022-08-27T11:31:19.722Z,101023.94
2022-08-27T11:34:14.640Z,101017.28
2022-08-27T11:37:20.321Z,101023.41
2022-08-27T11:40:39.378Z,101016.34
2022-08-27T11:43:13.884Z,101008.50
2022-08-27T11:46:00.316Z,101006.41
2022-08-27T11:48:32.709Z,101011.38
2022-08-27T11:51:06.925Z,101010.03
2022-08-27T11:53:52.073Z,101007.31
2022-08-27T11:56:36.718Z,101010.41
2022-08-27T11:59:27.844Z,101008.94
2022-08-27T12:02:25.920Z,101012.44
2022-08-27T12:05:07.153Z,101013.72
2022-08-27T12:07:39.743Z,101014.16
2022-08-27T12:10:29.944Z,101018.78
2022-08-27T12:13:08.912Z,101024.66
2022-08-27T12:16:12.353Z,101015.72
2022-08-27T12:19:12.593Z,101023.97
2022-08-27T12:22:14.439Z,101021.28
2022-08-27T12:24:49.170Z,101022.94
2022-08-27T12:27:21.767Z,101018.31
2022-08-27T12:29:53.988Z,101024.75
2022-08-27T12:32:32.212Z,101020.66
2022-08-27T12:35:42.851Z,101010.47
2022-08-27T12:38:31.539Z,101023.88
2022-08-27T12:41:03.896Z,101018.56
2022-08-27T12:43:35.470Z,101013.22
2022-08-27T12:46:07.544Z,101018.94
2022-08-27T12:48:40.517Z,101026.63
2022-08-27T12:51:16.640Z,101034.84
2022-08-27T12:54:19.278Z,101032.19
2022-08-27T12:57:22.326Z,101030.13
2022-08-27T13:00:10.794Z,101017.38
2022-08-27T13:03:03.219Z,101016.53
2022-08-27T13:05:46.718Z,101019.41
2022-08-27T13:08:39.904Z,101016.97
2022-08-27T13:11:23.536Z,101016.69
2022-08-27T13:13:52.274Z,101025.25
2022-08-27T13:16:21.043Z,101027.56
2022-08-27T13:18:52.270Z,101036.88
2022-08-27T13:21:28.556Z,101046.16
2022-08-27T13:24:00.642Z,101047.53
2022-08-27T13:26:34.039Z,101054.25
2022-08-27T13:29:03.778Z,101056.19
2022-08-27T13:31:32.276Z,101055.84
2022-08-27T13:34:00.210Z,101060.19
2022-08-27T13:36:32.031Z,101065.22
2022-08-27T13:39:02.544Z,101072.88
2022-08-27T13:41:36.996Z,101075.22
2022-08-27T13:44:20.448Z,101074.31
2022-08-27T13:47:00.183Z,101083.16
2022-08-27T13:49:29.863Z,101075.47
2022-08-27T13:52:15.322Z,101064.13
2022-08-27T13:54:50.751Z,101068.34
2022-08-27T13:57:31.138Z,101060.13
2022-08-27T14:00:32.731Z,101067.44
2022-08-27T14:03:02.152Z,101076.97
2022-08-27T14:05:33.946Z,101066.19
2022-08-27T14:08:23.044Z,101083.84
2022-08-27T14:11:04.498Z,101072.34
2022-08-27T14:13:45.215Z,101073.41
2022-08-27T14:16:29.597Z,101079.28
2022-08-27T14:19:36.918Z,101083.38
2022-08-27T14:22:04.496Z,101080.06
2022-08-27T14:24:31.415Z,101086.16
2022-08-27T14:27:10.097Z,101082.47
2022-08-27T14:29:37.763Z,101076.03
2022-08-27T14:32:07.572Z,101074.09
2022-08-27T14:34:35.881Z,101073.25
2022-08-27T14:37:04.583Z,101076.50
2022-08-27T14:39:32.135Z,101075.69
2022-08-27T14:41:59.587Z,101087.94
2022-08-27T14:44:26.911Z,101091.66
2022-08-27T14:46:54.386Z,101093.69
2022-08-27T14:49:32.606Z,101099.22
2022-08-27T14:51:59.531Z,101106.34
2022-08-27T14:54:29.043Z,101113.47
2022-08-27T14:57:02.295Z,101104.59
2022-08-27T14:59:29.407Z,101109.22
2022-08-27T15:01:59.398Z,101112.13
2022-08-27T15:04:27.361Z,101103.34
2022-08-27T15:06:55.550Z,101114.88
2022-08-27T15:09:22.716Z,101116.59
2022-08-27T15:11:50.993Z,101118.34
2022-08-27T15:14:34.566Z,101111.22
2022-08-27T15:17:02.423Z,101109.28
2022-08-27T15:19:48.327Z,101108.47
2022-08-27T15:22:25.000Z,101101.41
2022-08-27T15:24:55.574Z,101103.16
2022-08-27T15:27:23.082Z,101112.03
2022-08-27T15:29:59.766Z,101108.47
2022-08-27T15:32:34.836Z,101120.78
2022-08-27T15:35:07.982Z,101110.91
2022-08-27T15:37:35.594Z,101109.84
2022-08-27T15:40:03.151Z,101111.44
2022-08-27T15:42:30.191Z,101103.34
2022-08-27T15:44:58.062Z,101093.50
2022-08-27T15:47:26.078Z,101103.00
2022-08-27T15:49:53.127Z,101102.81
2022-08-27T15:52:22.140Z,101103.59
2022-08-27T15:54:50.033Z,101103.56
2022-08-27T15:57:19.074Z,101109.72
2022-08-27T15:59:46.237Z,101116.69
2022-08-27T16:02:18.123Z,101113.97
2022-08-27T16:04:45.562Z,101117.41
2022-08-27T16:07:21.049Z,101116.50
2022-08-27T16:09:48.347Z,101111.19
2022-08-27T16:12:22.441Z,101115.63
2022-08-27T16:14:55.467Z,101112.03
2022-08-27T16:17:23.759Z,101108.53
2022-08-27T16:19:50.974Z,101103.25
2022-08-27T16:22:18.616Z,101106.78
2022-08-27T16:24:45.815Z,101096.34
2022-08-27T16:27:12.724Z,101097.16
2022-08-27T16:29:39.656Z,101096.34
2022-08-27T16:32:11.486Z,101092.03
2022-08-27T16:34:39.468Z,101093.69
2022-08-27T16:37:06.454Z,101081.38
2022-08-27T16:39:37.406Z,101091.16
2022-08-27T16:42:10.607Z,101083.28
2022-08-27T16:44:38.775Z,101086.78
2022-08-27T16:47:08.849Z,101093.13
2022-08-27T16:49:54.538Z,101093.16
2022-08-27T16:52:23.225Z,101086.34
2022-08-27T16:54:51.407Z,101086.53
2022-08-27T16:57:18.880Z,101096.38
2022-08-27T16:59:46.031Z,101087.66
2022-08-27T17:02:32.822Z,101100.31
2022-08-27T17:05:12.435Z,101087.31
2022-08-27T17:07:49.054Z,101102.13
2022-08-27T17:10:19.427Z,101092.47
2022-08-27T17:12:47.699Z,101094.44
2022-08-27T17:15:16.876Z,101087.56
2022-08-27T17:17:45.065Z,101093.66
2022-08-27T17:20:13.141Z,101091.97
2022-08-27T17:22:40.050Z,101092.81
2022-08-27T17:25:07.853Z,101096.34
2022-08-27T17:27:34.760Z,101098.94
2022-08-27T17:30:01.852Z,101093.88
2022-08-27T17:32:31.768Z,101115.06
2022-08-27T17:35:01.251Z,101113.28
2022-08-27T17:37:32.186Z,101115.25
2022-08-27T17:39:59.145Z,101119.75
2022-08-27T17:42:26.496Z,101119.03
2022-08-27T17:44:53.445Z,101128.00
2022-08-27T17:47:20.737Z,101121.88
2022-08-27T17:49:47.658Z,101137.81
2022-08-27T17:52:16.291Z,101141.34
2022-08-27T17:54:51.577Z,101139.53
2022-08-27T17:57:24.237Z,101148.41
2022-08-27T17:59:53.562Z,101153.63
2022-08-27T18:02:45.204Z,101150.25
2022-08-27T18:05:13.397Z,101154.50
2022-08-27T18:07:42.253Z,101166.91
2022-08-27T18:10:12.418Z,101158.09
2022-08-27T18:12:40.505Z,101173.22
2022-08-27T18:15:10.476Z,101167.09
2022-08-27T18:17:42.590Z,101168.09
2022-08-27T18:20:13.557Z,101167.28
2022-08-27T18:22:43.358Z,101170.06
2022-08-27T18:25:17.873Z,101164.09
2022-08-27T18:27:47.167Z,101168.59
2022-08-27T18:30:14.364Z,101167.91
2022-08-27T18:32:41.620Z,101168.13
2022-08-27T18:35:27.656Z,101182.06
2022-08-27T18:37:55.223Z,101171.53
2022-08-27T18:40:26.293Z,101183.84
2022-08-27T18:42:53.694Z,101182.97
2022-08-27T18:45:28.593Z,101177.75
2022-08-27T18:47:59.601Z,101181.25
2022-08-27T18:50:27.397Z,101186.56
2022-08-27T18:52:56.666Z,101186.63
2022-08-27T18:55:28.016Z,101184.06
2022-08-27T18:57:54.961Z,101188.59
2022-08-27T19:00:22.531Z,101186.78
2022-08-27T19:02:52.722Z,101195.66
2022-08-27T19:05:26.640Z,101193.94
2022-08-27T19:07:54.317Z,101195.03
2022-08-27T19:10:21.519Z,101200.25
2022-08-27T19:12:48.662Z,101194.94
2022-08-27T19:15:16.145Z,101194.09
2022-08-27T19:17:48.535Z,101190.56
2022-08-27T19:20:17.414Z,101189.72
2022-08-27T19:22:45.700Z,101199.47
2022-08-27T19:25:13.081Z,101198.63
2022-08-27T19:27:40.429Z,101197.81
2022-08-27T19:30:08.547Z,101199.66
2022-08-27T19:32:35.655Z,101205.91
2022-08-27T19:35:04.868Z,101201.50
2022-08-27T19:37:46.360Z,101213.91
2022-08-27T19:40:21.827Z,101202.47
2022-08-27T19:42:49.190Z,101202.47
2022-08-27T19:45:16.158Z,101198.06
2022-08-27T19:47:51.172Z,101199.81
2022-08-27T19:50:18.231Z,101208.59
2022-08-27T19:52:47.362Z,101204.22
2022-08-27T19:55:14.914Z,101220.16
2022-08-27T19:57:43.652Z,101214.00
2022-08-27T20:00:14.334Z,101212.25
2022-08-27T20:02:41.408Z,101213.19
2022-08-27T20:05:23.246Z,101211.44
2022-08-27T20:07:52.781Z,101224.78
2022-08-27T20:10:25.755Z,101223.03
2022-08-27T20:12:58.429Z,101222.28
2022-08-27T20:15:26.003Z,101229.31
2022-08-27T20:17:54.083Z,101228.47
2022-08-27T20:20:24.406Z,101222.28
2022-08-27T20:22:52.778Z,101217.16
2022-08-27T20:25:19.877Z,101212.69
2022-08-27T20:27:47.670Z,101225.97
2022-08-27T20:30:18.101Z,101224.31
2022-08-27T20:32:46.715Z,101226.97
2022-08-27T20:35:15.183Z,101226.09
2022-08-27T20:37:42.737Z,101227.88
2022-08-27T20:40:31.383Z,101220.91
2022-08-27T20:43:01.178Z,101221.78
2022-08-27T20:45:30.225Z,101220.06
2022-08-27T20:47:59.351Z,101222.72
2022-08-27T20:50:26.856Z,101212.94
2022-08-27T20:52:53.882Z,101214.75
2022-08-27T20:55:22.730Z,101207.81
2022-08-27T20:58:09.155Z,101223.59
2022-08-27T21:00:40.892Z,101222.88
2022-08-27T21:03:10.501Z,101210.47
2022-08-27T21:05:37.934Z,101215.81
2022-08-27T21:08:06.468Z,101210.59
2022-08-27T21:10:34.835Z,101214.13
2022-08-27T21:13:04.807Z,101212.41
2022-08-27T21:15:32.701Z,101217.69
2022-08-27T21:17:59.899Z,101210.75
2022-08-27T21:20:26.983Z,101216.00
2022-08-27T21:22:56.049Z,101216.06
2022-08-27T21:25:25.123Z,101214.38
2022-08-27T21:27:53.188Z,101210.09
2022-08-27T21:30:21.688Z,101205.72
2022-08-27T21:32:48.817Z,101203.19
2022-08-27T21:35:15.705Z,101195.31
2022-08-27T21:37:43.681Z,101195.41
2022-08-27T21:40:11.100Z,101202.53
2022-08-27T21:42:38.063Z,101197.34
2022-08-27T21:45:05.762Z,101200.97
2022-08-27T21:47:32.659Z,101198.44
2022-08-27T21:49:59.557Z,101191.38
2022-08-27T21:52:26.452Z,101191.44
2022-08-27T21:54:53.350Z,101188.00
2022-08-27T21:57:20.277Z,101180.97
2022-08-27T21:59:49.158Z,101186.38
2022-08-27T22:02:40.258Z,101194.41
2022-08-27T22:05:08.992Z,101190.06
2022-08-27T22:07:36.131Z,101190.97
2022-08-27T22:10:04.000Z,101199.84
2022-08-27T22:12:30.900Z,101196.47
2022-08-27T22:14:57.780Z,101190.34
2022-08-27T22:17:24.701Z,101190.50
2022-08-27T22:19:51.591Z,101194.81
2022-08-27T22:22:18.512Z,101194.00
2022-08-27T22:24:45.472Z,101198.50
2022-08-27T22:27:12.499Z,101201.22
2022-08-27T22:29:39.458Z,101199.47
2022-08-27T22:32:09.525Z,101204.75
2022-08-27T22:34:36.657Z,101202.06
2022-08-27T22:37:04.399Z,101197.66
2022-08-27T22:39:31.368Z,101203.88
2022-08-27T22:41:58.486Z,101202.06
2022-08-27T22:44:29.213Z,101202.06
2022-08-27T22:46:56.806Z,101206.50
2022-08-27T22:49:23.856Z,101200.31
2022-08-27T22:51:50.852Z,101199.47
2022-08-27T22:54:18.820Z,101199.47
2022-08-27T22:56:45.744Z,101198.59
2022-08-27T22:59:12.842Z,101196.81
2022-08-27T23:01:39.958Z,101190.69
2022-08-27T23:04:07.045Z,101194.16
2022-08-27T23:06:34.385Z,101198.59
2022-08-27T23:09:01.815Z,101191.59
2022-08-27T23:11:31.845Z,101192.47
2022-08-27T23:13:59.943Z,101188.03
2022-08-27T23:16:27.669Z,101190.75
2022-08-27T23:18:54.722Z,101187.25
2022-08-27T23:21:21.706Z,101183.72
2022-08-27T23:23:48.904Z,101186.38
2022-08-27T23:26:34.771Z,101189.00
2022-08-27T23:29:01.809Z,101182.03
2022-08-27T23:31:28.772Z,101178.47
2022-08-27T23:33:56.027Z,101184.69
2022-08-27T23:36:23.622Z,101180.28
2022-08-27T23:38:50.537Z,101188.22
2022-08-27T23:41:17.459Z,101175.88
2022-08-27T23:43:45.529Z,101184.75
2022-08-27T23:46:13.146Z,101192.72
2022-08-27T23:48:40.321Z,101192.75
2022-08-27T23:51:09.251Z,101194.50
2022-08-27T23:53:37.743Z,101198.19
2022-08-27T23:56:05.249Z,101191.03
2022-08-27T23:58:32.700Z,101195.50
